aviador You're here:

VEPT Decoded Metar

PATINA in INDIA
Report Time2018-07-22 16:00:00
UTC Time2018-07-22 16:26:39
Flight Rules ifr IFR
Wind100° at 13 kt
W.Decomp.*RWY 07: 11.3 kt HW 6.5 kt RCW
W.Rank100° ranks 3
Current wind is above 100° avg. (6.3)
Visibility3500 m
Phenomena:Haze
Clouds:Scattered 018 Hf
Broken 100 Hf
Expected CloudBase > 2,000 ft AGL from Temp-Dew spread
Ceiling10,000 ft
Temp30°C (ISA +15)
Dew Point25°C (75% RH)
Heat Index36.3°C
QNH0996 hPa
Density Alt2,953 ft
Elevation197 ft
Report Wrong Elevation
Raw Report
METAR VEPT 221600Z 10013KT 3500 HZ SCT018 BKN100 30/25 Q0996 NOSIG=

Extra information for VEPT:More info

Metar Taf Metar & Taf Last 4 Metars F.Rules Stats Wind Profile Meteogram Temp Stats Airport Information Weather charts Add Link Nearby VenuesMetar ALERT Operation Metar Decoded Social comments